Time;durP1;ratioP1;P1;durP2;ratioP2;P2;SDS_P1;SDS_P2;PMS_P1;PMS_P2;Temp;Humidity;BMP_temperature;BMP_pressure;BME280_temperature;BME280_humidity;BME280_pressure;Samples;Min_cycle;Max_cycle;Signal;HPM_P1;HPM_P2
2021/07/26 00:00:51;;;;;;;2.13;2.03;;;;;24.30;99800.00;;;;2060029;28;20230;-66
2021/07/26 00:01:52;;;;;;;1.90;1.80;;;;;24.30;99806.00;;;;2059274;28;20716;-66
2021/07/26 00:02:52;;;;;;;1.70;1.60;;;;;24.30;99803.00;;;;2056542;28;20215;-66
2021/07/26 00:03:52;;;;;;;1.83;1.70;;;;;24.30;99801.00;;;;2055756;28;20239;-66
2021/07/26 00:04:53;;;;;;;1.60;1.50;;;;;24.30;99813.00;;;;2059280;28;20226;-66
2021/07/26 00:05:57;;;;;;;1.87;1.77;;;;;24.30;99804.00;;;;2062152;28;20219;-66
2021/07/26 00:06:57;;;;;;;1.73;1.63;;;;;24.30;99807.00;;;;2062577;28;20211;-66
2021/07/26 00:07:58;;;;;;;1.80;1.70;;;;;24.30;99804.00;;;;2054951;28;20203;-66
2021/07/26 00:08:58;;;;;;;1.80;1.70;;;;;24.30;99805.00;;;;2055202;28;20306;-66
2021/07/26 00:09:58;;;;;;;1.80;1.70;;;;;24.30;99805.00;;;;2057381;28;20223;-66
2021/07/26 00:10:59;;;;;;;1.67;1.57;;;;;24.30;99805.00;;;;2057914;28;20242;-66
2021/07/26 00:11:59;;;;;;;1.97;1.80;;;;;24.30;99808.00;;;;2058657;28;20242;-66
2021/07/26 00:13:00;;;;;;;1.93;1.60;;;;;24.30;99806.00;;;;2058660;28;20219;-66
2021/07/26 00:14:00;;;;;;;1.90;1.80;;;;;24.30;99806.00;;;;2058107;28;20301;-66
2021/07/26 00:15:00;;;;;;;1.50;1.40;;;;;24.30;99808.00;;;;2058432;28;20479;-66
2021/07/26 00:16:01;;;;;;;2.10;1.90;;;;;24.30;99802.00;;;;2058855;28;20220;-67
2021/07/26 00:17:01;;;;;;;2.00;1.90;;;;;24.30;99808.00;;;;2059249;28;20223;-66
2021/07/26 00:18:02;;;;;;;2.03;1.50;;;;;24.30;99804.00;;;;2061104;28;20224;-66
2021/07/26 00:19:02;;;;;;;1.63;1.50;;;;;24.30;99794.00;;;;2059337;28;20250;-66
2021/07/26 00:20:03;;;;;;;2.00;1.80;;;;;24.30;99801.00;;;;2050212;28;20303;-66
2021/07/26 00:21:03;;;;;;;1.63;1.53;;;;;24.30;99805.00;;;;2049380;28;20726;-66
2021/07/26 00:22:05;;;;;;;1.70;1.60;;;;;24.30;99805.00;;;;2049785;28;20451;-66
2021/07/26 00:23:05;;;;;;;1.75;1.65;;;;;24.30;99802.00;;;;2050542;28;20235;-66
2021/07/26 00:24:06;;;;;;;1.77;1.67;;;;;24.30;99804.00;;;;2059825;28;20219;-66
2021/07/26 00:25:07;;;;;;;1.50;1.40;;;;;24.30;99807.00;;;;2059812;28;20231;-66
2021/07/26 00:26:07;;;;;;;1.60;1.50;;;;;24.30;99801.00;;;;2057857;28;20602;-66
2021/07/26 00:27:08;;;;;;;1.90;1.80;;;;;24.30;99806.00;;;;2059295;28;20223;-66
2021/07/26 00:28:08;;;;;;;1.97;1.30;;;;;24.30;99805.00;;;;2059538;28;20694;-66
2021/07/26 00:29:09;;;;;;;1.83;1.73;;;;;24.30;99809.00;;;;2059722;28;20664;-66
2021/07/26 00:30:09;;;;;;;1.90;1.70;;;;;24.30;99806.00;;;;2060127;28;20861;-66
2021/07/26 00:31:10;;;;;;;1.70;1.60;;;;;24.30;99812.00;;;;2062336;28;20646;-66
2021/07/26 00:32:10;;;;;;;1.83;1.73;;;;;24.30;99808.00;;;;2059897;28;20230;-66
2021/07/26 00:34:55;;;;;;;2.10;1.90;;;;;24.30;99809.00;;;;2058941;28;20227;-66
2021/07/26 00:35:56;;;;;;;2.00;1.80;;;;;24.30;99805.00;;;;2060545;28;20215;-66
2021/07/26 00:36:57;;;;;;;1.83;1.73;;;;;24.30;99801.00;;;;2060013;28;20730;-66
2021/07/26 00:37:58;;;;;;;1.90;1.80;;;;;24.30;99803.00;;;;2054030;28;20267;-66
2021/07/26 00:38:58;;;;;;;1.93;1.83;;;;;24.30;99800.00;;;;2051731;28;20774;-66
2021/07/26 00:40:00;;;;;;;1.83;1.73;;;;;24.30;99792.00;;;;2059364;28;20714;-65
2021/07/26 00:41:00;;;;;;;1.80;1.60;;;;;24.30;99799.00;;;;2058922;28;20733;-66
2021/07/26 00:42:01;;;;;;;1.97;1.87;;;;;24.30;99801.00;;;;2059352;28;20298;-66
2021/07/26 00:43:04;;;;;;;1.73;1.63;;;;;24.30;99799.00;;;;2059509;28;20212;-66
2021/07/26 00:44:04;;;;;;;2.20;2.00;;;;;24.30;99797.00;;;;2048540;28;20923;-66
2021/07/26 00:45:05;;;;;;;1.67;1.57;;;;;24.30;99808.00;;;;2046609;28;20220;-66
2021/07/26 00:46:07;;;;;;;1.83;1.73;;;;;24.30;99795.00;;;;2060965;28;20211;-66
2021/07/26 00:47:07;;;;;;;1.73;1.63;;;;;24.30;99800.00;;;;2060501;28;20581;-66
2021/07/26 00:48:07;;;;;;;1.97;1.77;;;;;24.30;99800.00;;;;2060587;28;20219;-67
2021/07/26 00:49:09;;;;;;;1.90;1.77;;;;;24.30;99800.00;;;;2060539;28;21195;-66
2021/07/26 00:50:10;;;;;;;2.10;1.92;;;;;24.30;99764.00;;;;2052205;28;20227;-66
2021/07/26 00:51:11;;;;;;;1.70;1.60;;;;;24.30;99803.00;;;;2044276;29;20220;-66
2021/07/26 00:52:11;;;;;;;1.70;1.60;;;;;24.30;99805.00;;;;2050530;28;20208;-66
2021/07/26 00:53:11;;;;;;;1.90;1.80;;;;;24.30;99804.00;;;;2050929;28;20455;-64
2021/07/26 00:54:13;;;;;;;1.60;1.50;;;;;24.30;99799.00;;;;2054674;28;20218;-64
2021/07/26 00:55:13;;;;;;;1.70;1.60;;;;;24.30;99804.00;;;;2052853;28;20289;-64
2021/07/26 00:56:13;;;;;;;1.83;1.73;;;;;24.30;99806.00;;;;2042797;28;20247;-64
2021/07/26 00:57:14;;;;;;;2.10;1.90;;;;;24.30;99813.00;;;;2050795;28;20284;-64
2021/07/26 00:58:14;;;;;;;2.13;1.93;;;;;24.30;99796.00;;;;2050092;28;20221;-64
2021/07/26 00:59:15;;;;;;;1.73;1.63;;;;;24.30;99808.00;;;;2050225;28;20243;-64
2021/07/26 01:00:15;;;;;;;1.83;1.70;;;;;24.30;99800.00;;;;2059276;28;20212;-64
2021/07/26 01:01:17;;;;;;;2.03;1.87;;;;;24.30;99794.00;;;;2060189;28;20212;-64
2021/07/26 01:02:18;;;;;;;1.50;1.40;;;;;24.30;99753.00;;;;2051528;28;20259;-64
2021/07/26 01:03:18;;;;;;;1.73;1.60;;;;;24.30;99797.00;;;;2043964;28;20220;-64
2021/07/26 01:04:18;;;;;;;1.97;1.87;;;;;24.30;99795.00;;;;2043031;29;20231;-64
2021/07/26 01:05:19;;;;;;;1.90;1.80;;;;;24.30;99788.00;;;;2050817;28;20224;-64
2021/07/26 01:06:19;;;;;;;1.70;1.60;;;;;24.30;99791.00;;;;2059285;28;20219;-64
2021/07/26 01:07:20;;;;;;;2.43;1.73;;;;;24.30;99788.00;;;;2050472;28;20208;-64
2021/07/26 01:08:20;;;;;;;2.17;1.97;;;;;24.30;99789.00;;;;2051374;28;20511;-64
2021/07/26 01:09:20;;;;;;;1.87;1.77;;;;;24.30;99786.00;;;;2051560;28;20236;-64
2021/07/26 01:10:21;;;;;;;1.60;1.50;;;;;24.30;99794.00;;;;2043138;29;20224;-64
2021/07/26 01:11:21;;;;;;;1.90;1.80;;;;;24.30;99792.00;;;;2051592;28;20222;-64
2021/07/26 01:12:22;;;;;;;1.33;1.23;;;;;24.30;99797.00;;;;2058802;28;20219;-64
2021/07/26 01:13:25;;;;;;;1.70;1.60;;;;;24.30;99792.00;;;;2056323;28;20215;-64
2021/07/26 01:14:25;;;;;;;1.90;1.80;;;;;24.30;99796.00;;;;2059097;28;20283;-64
2021/07/26 01:15:25;;;;;;;1.73;1.63;;;;;24.30;99800.00;;;;2050697;28;20295;-64
2021/07/26 01:16:26;;;;;;;1.50;1.40;;;;;24.30;99796.00;;;;2043251;29;20236;-64
2021/07/26 01:17:58;;;;;;;1.67;1.57;;;;;24.30;99801.00;;;;2051460;28;20216;-64
2021/07/26 01:19:02;;;;;;;1.70;1.60;;;;;24.30;99805.00;;;;2050516;28;20327;-64
2021/07/26 01:20:05;;;;;;;1.70;1.60;;;;;24.30;99797.00;;;;2054111;28;20243;-64
2021/07/26 01:21:12;;;;;;;1.90;1.80;;;;;24.30;99801.00;;;;2059422;28;20239;-64
2021/07/26 01:22:13;;;;;;;1.60;1.50;;;;;24.30;99793.00;;;;2060118;28;20302;-64
2021/07/26 01:23:13;;;;;;;1.83;1.73;;;;;24.30;99787.00;;;;2059562;28;20211;-64
2021/07/26 01:24:13;;;;;;;1.70;1.60;;;;;24.30;99787.00;;;;2060661;28;20246;-64
2021/07/26 01:25:14;;;;;;;1.80;1.70;;;;;24.30;99789.00;;;;2062467;28;20230;-64
2021/07/26 01:26:16;;;;;;;1.87;1.77;;;;;24.30;99784.00;;;;2061899;28;20230;-64
2021/07/26 01:27:16;;;;;;;1.70;1.60;;;;;24.30;99790.00;;;;2059315;28;20277;-64
2021/07/26 01:28:19;;;;;;;1.77;1.67;;;;;24.30;99787.00;;;;2059137;28;20215;-64
2021/07/26 01:29:21;;;;;;;1.52;1.42;;;;;24.30;99790.00;;;;2059109;28;20584;-64
2021/07/26 01:30:22;;;;;;;1.77;1.67;;;;;24.30;99789.00;;;;2058723;28;20227;-64
2021/07/26 01:31:22;;;;;;;1.97;1.77;;;;;24.30;99790.00;;;;2060133;28;20223;-64
2021/07/26 01:32:22;;;;;;;1.50;1.40;;;;;24.30;99791.00;;;;2060030;28;20211;-64
2021/07/26 01:33:23;;;;;;;1.87;1.50;;;;;24.30;99797.00;;;;2059894;28;20218;-64
2021/07/26 01:34:23;;;;;;;2.10;2.00;;;;;24.30;99795.00;;;;2059232;28;20851;-64
2021/07/26 01:35:24;;;;;;;1.53;1.43;;;;;24.30;99797.00;;;;2058911;28;20218;-64
2021/07/26 01:36:24;;;;;;;1.70;1.60;;;;;24.30;99801.00;;;;2059184;28;20215;-64
2021/07/26 01:37:25;;;;;;;1.80;1.70;;;;;24.30;99807.00;;;;2060500;28;20250;-64
2021/07/26 01:38:25;;;;;;;1.70;1.60;;;;;24.30;99806.00;;;;2063521;28;20554;-65
2021/07/26 01:39:25;;;;;;;1.70;1.60;;;;;24.30;99803.00;;;;2061733;28;20670;-64
2021/07/26 01:40:26;;;;;;;1.80;1.70;;;;;24.30;99797.00;;;;2060280;28;20293;-64
2021/07/26 01:41:29;;;;;;;1.93;1.83;;;;;24.30;99806.00;;;;2059205;28;20211;-64
2021/07/26 01:42:30;;;;;;;1.80;1.70;;;;;24.30;99805.00;;;;2056717;28;20226;-64
2021/07/26 01:43:33;;;;;;;2.00;1.80;;;;;24.30;99804.00;;;;2059662;28;20215;-64
2021/07/26 01:44:33;;;;;;;2.08;1.88;;;;;24.30;99805.00;;;;2059758;28;20207;-64
2021/07/26 01:45:34;;;;;;;1.97;1.77;;;;;24.30;99799.00;;;;2060040;28;20216;-64
2021/07/26 01:46:40;;;;;;;1.73;1.63;;;;;24.30;99801.00;;;;2059249;28;20219;-64
2021/07/26 01:47:50;;;;;;;1.85;1.75;;;;;24.30;99804.00;;;;2049347;28;20859;-65
2021/07/26 01:48:55;;;;;;;1.45;1.35;;;;;24.30;99805.00;;;;2043830;28;20220;-64
2021/07/26 01:50:03;;;;;;;2.10;1.90;;;;;24.30;99797.00;;;;2035925;29;20261;-64
2021/07/26 01:51:07;;;;;;;1.75;1.65;;;;;24.30;99801.00;;;;2036435;28;20245;-64
2021/07/26 01:52:07;;;;;;;1.90;1.80;;;;;24.30;99804.00;;;;2046410;29;20747;-64
2021/07/26 01:53:07;;;;;;;1.73;1.60;;;;;24.30;99801.00;;;;2050692;28;20199;-65
2021/07/26 01:54:08;;;;;;;2.40;1.67;;;;;24.30;99800.00;;;;2049490;28;20296;-64
2021/07/26 01:55:08;;;;;;;1.73;1.63;;;;;24.30;99799.00;;;;2050892;28;20604;-65
2021/07/26 01:56:08;;;;;;;1.70;1.60;;;;;24.30;99807.00;;;;2054343;28;20203;-64
2021/07/26 01:57:09;;;;;;;2.20;1.73;;;;;24.30;99806.00;;;;2055865;28;20287;-65
2021/07/26 01:58:09;;;;;;;2.10;1.90;;;;;24.30;99818.00;;;;2051261;28;20244;-64
2021/07/26 01:59:13;;;;;;;1.70;1.60;;;;;24.30;99807.00;;;;2050042;28;20211;-64
2021/07/26 02:00:14;;;;;;;2.00;1.80;;;;;24.30;99808.00;;;;2049877;28;20208;-64
2021/07/26 02:01:14;;;;;;;1.50;1.40;;;;;24.30;99810.00;;;;2050490;28;20290;-65
2021/07/26 02:02:15;;;;;;;1.60;1.50;;;;;24.30;99813.00;;;;2059043;28;20992;-64
2021/07/26 02:03:15;;;;;;;1.90;1.80;;;;;24.30;99808.00;;;;2057865;28;20758;-64
2021/07/26 02:04:16;;;;;;;2.00;1.80;;;;;24.30;99813.00;;;;2059807;28;20563;-64
2021/07/26 02:05:16;;;;;;;1.83;1.60;;;;;24.30;99819.00;;;;2059754;28;20226;-64
2021/07/26 02:06:16;;;;;;;1.70;1.60;;;;;24.20;99809.00;;;;2059532;28;20825;-64
2021/07/26 02:07:17;;;;;;;2.50;1.60;;;;;24.30;99819.00;;;;2059715;28;20238;-64
2021/07/26 02:08:17;;;;;;;1.90;1.70;;;;;24.30;99807.00;;;;2059175;28;20221;-64
2021/07/26 02:09:17;;;;;;;2.00;1.80;;;;;24.30;99813.00;;;;2058847;28;20210;-64
2021/07/26 02:10:18;;;;;;;1.93;1.83;;;;;24.30;99813.00;;;;2058340;28;20214;-64
2021/07/26 02:11:22;;;;;;;1.77;1.67;;;;;24.30;99813.00;;;;2059064;28;20212;-64
2021/07/26 02:12:22;;;;;;;1.55;1.45;;;;;24.20;99808.00;;;;2059531;28;20358;-64
2021/07/26 02:13:22;;;;;;;1.67;1.57;;;;;24.30;99813.00;;;;2059647;28;20725;-64
2021/07/26 02:14:22;;;;;;;2.07;1.90;;;;;24.30;99807.00;;;;2058141;28;20738;-64
2021/07/26 02:15:23;;;;;;;1.90;1.80;;;;;24.30;99810.00;;;;2059461;28;20576;-64
2021/07/26 02:16:23;;;;;;;1.60;1.50;;;;;24.20;99811.00;;;;2059341;28;20211;-64
2021/07/26 02:17:24;;;;;;;1.87;1.70;;;;;24.20;99813.00;;;;2058777;28;20217;-64
2021/07/26 02:18:24;;;;;;;1.70;1.60;;;;;24.20;99809.00;;;;2057009;28;20206;-64
2021/07/26 02:19:24;;;;;;;2.27;1.83;;;;;24.30;99818.00;;;;2052253;28;20594;-64
2021/07/26 02:20:25;;;;;;;1.70;1.57;;;;;24.20;99822.00;;;;2057342;28;20717;-64
2021/07/26 02:21:25;;;;;;;1.87;1.77;;;;;24.20;99824.00;;;;2059268;28;20694;-64
2021/07/26 02:22:25;;;;;;;1.60;1.50;;;;;24.10;99820.00;;;;2058931;28;20208;-64
2021/07/26 02:23:25;;;;;;;1.77;1.67;;;;;24.30;99822.00;;;;2059335;28;20208;-64
2021/07/26 02:24:26;;;;;;;2.00;1.77;;;;;24.30;99818.00;;;;2061846;28;20211;-64
2021/07/26 02:25:26;;;;;;;2.00;1.80;;;;;24.30;99820.00;;;;2059833;28;20247;-64
2021/07/26 02:26:27;;;;;;;1.80;1.70;;;;;24.20;99824.00;;;;2060018;28;20218;-64
2021/07/26 02:27:27;;;;;;;1.60;1.50;;;;;24.20;99822.00;;;;2059162;28;20214;-64
2021/07/26 02:28:27;;;;;;;1.60;1.50;;;;;24.20;99826.00;;;;2060394;28;20218;-64
2021/07/26 02:29:27;;;;;;;1.60;1.50;;;;;24.20;99822.00;;;;2055598;28;20754;-64
2021/07/26 02:30:28;;;;;;;1.67;1.57;;;;;24.20;99821.00;;;;2052961;28;21136;-64
2021/07/26 02:31:28;;;;;;;1.50;1.40;;;;;24.20;99824.00;;;;2057696;28;20688;-64
2021/07/26 02:32:29;;;;;;;1.80;1.70;;;;;24.20;99822.00;;;;2058825;28;20218;-64
2021/07/26 02:33:29;;;;;;;1.70;1.60;;;;;24.30;99818.00;;;;2058865;28;20219;-64
2021/07/26 02:34:29;;;;;;;1.97;1.87;;;;;24.20;99823.00;;;;2059549;28;20226;-64
2021/07/26 02:35:30;;;;;;;1.43;1.33;;;;;24.30;99820.00;;;;2059525;28;20243;-64
2021/07/26 02:36:30;;;;;;;1.60;1.50;;;;;24.30;99826.00;;;;2059531;28;20215;-63
2021/07/26 02:37:30;;;;;;;2.00;1.90;;;;;24.30;99824.00;;;;2059445;28;20238;-64
2021/07/26 02:38:31;;;;;;;1.50;1.40;;;;;24.20;99827.00;;;;2058495;28;20701;-65
2021/07/26 02:39:31;;;;;;;1.67;1.57;;;;;24.20;99824.00;;;;2058305;28;20217;-65
2021/07/26 02:40:31;;;;;;;1.90;1.80;;;;;24.20;99830.00;;;;2057751;28;20754;-64
2021/07/26 02:41:32;;;;;;;1.63;1.53;;;;;24.20;99833.00;;;;2058141;28;20215;-64
2021/07/26 02:42:32;;;;;;;1.70;1.60;;;;;24.30;99830.00;;;;2058514;28;20215;-64
2021/07/26 02:43:32;;;;;;;1.47;1.37;;;;;24.30;99825.00;;;;2059467;28;20741;-64
2021/07/26 02:44:34;;;;;;;1.70;1.60;;;;;24.20;99831.00;;;;2059511;28;20211;-64
2021/07/26 02:45:35;;;;;;;2.17;2.00;;;;;24.20;99838.00;;;;2057048;28;20222;-64
2021/07/26 02:46:35;;;;;;;1.83;1.73;;;;;24.20;99841.00;;;;2058340;28;20730;-64
2021/07/26 02:47:35;;;;;;;1.83;1.73;;;;;24.20;99839.00;;;;2058538;28;20223;-64
2021/07/26 02:48:36;;;;;;;1.90;1.80;;;;;24.20;99841.00;;;;2058656;28;20237;-64
2021/07/26 02:49:37;;;;;;;2.10;2.00;;;;;24.20;99839.00;;;;2056735;28;20219;-64
2021/07/26 02:50:37;;;;;;;1.50;1.40;;;;;24.20;99844.00;;;;2057553;28;20738;-64
2021/07/26 02:51:37;;;;;;;2.30;1.90;;;;;24.20;99833.00;;;;2059052;28;20215;-64
2021/07/26 02:52:38;;;;;;;1.83;1.73;;;;;24.20;99835.00;;;;2059017;28;20227;-64
2021/07/26 02:53:38;;;;;;;1.73;1.60;;;;;24.20;99840.00;;;;2059446;28;20219;-64
2021/07/26 02:54:39;;;;;;;1.80;1.70;;;;;24.20;99839.00;;;;2058913;28;20471;-64
2021/07/26 02:55:39;;;;;;;1.53;1.43;;;;;24.20;99818.00;;;;2050903;28;20721;-64
2021/07/26 02:56:42;;;;;;;1.90;1.80;;;;;24.20;99846.00;;;;2055520;28;20690;-64
2021/07/26 02:57:42;;;;;;;1.60;1.50;;;;;24.30;99843.00;;;;2059156;28;20223;-64
2021/07/26 02:58:43;;;;;;;1.70;1.60;;;;;24.20;99846.00;;;;2058499;28;20216;-64
2021/07/26 02:59:43;;;;;;;1.53;1.40;;;;;24.20;99848.00;;;;2059276;28;20211;-64
2021/07/26 03:00:47;;;;;;;1.90;1.70;;;;;24.20;99851.00;;;;2058913;28;20218;-65
2021/07/26 03:01:49;;;;;;;1.50;1.40;;;;;24.20;99852.00;;;;2059387;28;20725;-64
2021/07/26 03:02:50;;;;;;;1.80;1.70;;;;;24.20;99851.00;;;;2059026;28;20218;-64
2021/07/26 03:03:50;;;;;;;1.60;1.50;;;;;24.20;99852.00;;;;2058144;28;20215;-64
2021/07/26 03:04:51;;;;;;;1.77;1.50;;;;;24.20;99856.00;;;;2058576;28;20817;-64
2021/07/26 03:05:51;;;;;;;1.90;1.70;;;;;24.20;99855.00;;;;2058419;28;20242;-64
2021/07/26 03:06:51;;;;;;;2.00;1.70;;;;;24.20;99850.00;;;;2058820;28;20219;-64
2021/07/26 03:07:52;;;;;;;1.50;1.40;;;;;24.20;99854.00;;;;2059142;28;20207;-64
2021/07/26 03:08:52;;;;;;;1.53;1.43;;;;;24.20;99844.00;;;;2059088;28;20247;-64
2021/07/26 03:09:52;;;;;;;1.63;1.53;;;;;24.20;99854.00;;;;2059396;28;20212;-64
2021/07/26 03:11:01;;;;;;;1.50;1.40;;;;;24.20;99848.00;;;;2058649;28;20258;-64
2021/07/26 03:12:01;;;;;;;1.70;1.60;;;;;24.20;99845.00;;;;2050001;28;20275;-64
2021/07/26 03:13:02;;;;;;;1.90;1.80;;;;;24.20;99859.00;;;;2050329;28;20675;-64
2021/07/26 03:14:03;;;;;;;1.53;1.43;;;;;24.20;99854.00;;;;2057831;28;20259;-64
2021/07/26 03:15:05;;;;;;;1.73;1.63;;;;;24.20;99860.00;;;;2059246;28;22116;-64
2021/07/26 03:16:06;;;;;;;1.65;1.55;;;;;24.20;99861.00;;;;2059337;28;20227;-64
2021/07/26 03:17:06;;;;;;;1.80;1.70;;;;;24.20;99859.00;;;;2059216;28;20211;-64
2021/07/26 03:18:06;;;;;;;1.63;1.53;;;;;24.20;99867.00;;;;2059375;28;20247;-64
2021/07/26 03:19:07;;;;;;;1.87;1.77;;;;;24.20;99869.00;;;;2058341;28;20219;-64
2021/07/26 03:20:08;;;;;;;1.43;1.33;;;;;24.20;99870.00;;;;2058573;28;20563;-64
2021/07/26 03:21:12;;;;;;;1.90;1.70;;;;;24.20;99858.00;;;;2057952;28;20649;-64
2021/07/26 03:22:49;;;;;;;2.28;2.08;;;;;24.20;99873.00;;;;2050107;28;20259;-64
2021/07/26 03:23:50;;;;;;;1.60;1.50;;;;;24.20;99867.00;;;;2055072;28;20218;-64
2021/07/26 03:24:50;;;;;;;2.17;1.90;;;;;24.20;99868.00;;;;2061762;28;20222;-64
2021/07/26 03:25:51;;;;;;;1.60;1.50;;;;;24.20;99867.00;;;;2060038;28;20223;-64
2021/07/26 03:26:51;;;;;;;1.70;1.60;;;;;24.20;99872.00;;;;2059687;28;20235;-64
2021/07/26 03:27:51;;;;;;;2.00;1.60;;;;;24.20;99869.00;;;;2059367;28;20222;-64
2021/07/26 03:28:52;;;;;;;1.87;1.40;;;;;24.20;99871.00;;;;2059245;28;20214;-64
2021/07/26 03:29:53;;;;;;;1.80;1.70;;;;;24.20;99867.00;;;;2059050;28;20211;-64
2021/07/26 03:30:53;;;;;;;1.63;1.53;;;;;24.20;99867.00;;;;2057999;28;20222;-64
2021/07/26 03:31:53;;;;;;;1.73;1.63;;;;;24.20;99867.00;;;;2058504;28;20248;-64
2021/07/26 03:32:54;;;;;;;1.70;1.60;;;;;24.20;99862.00;;;;2058412;28;20239;-65
2021/07/26 03:33:54;;;;;;;1.90;1.80;;;;;24.20;99875.00;;;;2058424;28;20223;-65
2021/07/26 03:34:54;;;;;;;1.93;1.83;;;;;24.20;99873.00;;;;2057896;28;20617;-65
2021/07/26 03:35:54;;;;;;;1.73;1.60;;;;;24.20;99877.00;;;;2058519;28;20602;-65
2021/07/26 03:36:55;;;;;;;1.83;1.73;;;;;24.20;99875.00;;;;2058496;28;20694;-65
2021/07/26 03:37:55;;;;;;;1.73;1.60;;;;;24.20;99870.00;;;;2058439;28;20695;-65
2021/07/26 03:38:55;;;;;;;1.50;1.40;;;;;24.20;99872.00;;;;2058957;28;20703;-65
2021/07/26 03:39:56;;;;;;;1.73;1.60;;;;;24.20;99871.00;;;;2060160;28;20258;-65
2021/07/26 03:40:56;;;;;;;1.70;1.60;;;;;24.20;99877.00;;;;2058637;28;20215;-65
2021/07/26 03:41:57;;;;;;;1.90;1.70;;;;;24.20;99886.00;;;;2059147;28;20211;-65
2021/07/26 03:42:58;;;;;;;2.10;1.90;;;;;24.20;99879.00;;;;2058964;28;20215;-64
2021/07/26 03:43:58;;;;;;;2.10;1.57;;;;;24.20;99882.00;;;;2058660;28;20208;-64
2021/07/26 03:44:58;;;;;;;1.63;1.53;;;;;24.20;99870.00;;;;2059252;28;20310;-65
2021/07/26 03:45:59;;;;;;;2.00;1.90;;;;;24.20;99873.00;;;;2059252;28;20203;-64
2021/07/26 03:47:00;;;;;;;1.60;1.50;;;;;24.20;99881.00;;;;2058809;28;20238;-64
2021/07/26 03:48:00;;;;;;;1.40;1.30;;;;;24.20;99876.00;;;;2058512;28;20207;-64
2021/07/26 03:49:00;;;;;;;1.67;1.57;;;;;24.20;99874.00;;;;2058273;28;20234;-64
2021/07/26 03:50:01;;;;;;;1.87;1.77;;;;;24.20;99879.00;;;;2058094;28;20223;-64
2021/07/26 03:51:01;;;;;;;1.80;1.60;;;;;24.20;99874.00;;;;2057970;28;20262;-64
2021/07/26 03:52:01;;;;;;;1.70;1.60;;;;;24.20;99873.00;;;;2059076;28;20248;-64
2021/07/26 03:53:02;;;;;;;1.60;1.50;;;;;24.20;99865.00;;;;2059215;28;20224;-64
2021/07/26 03:54:02;;;;;;;1.60;1.50;;;;;24.20;99877.00;;;;2050678;28;20217;-64
2021/07/26 03:55:03;;;;;;;1.60;1.50;;;;;24.20;99877.00;;;;2050322;28;20936;-64
2021/07/26 03:56:03;;;;;;;1.87;1.77;;;;;24.20;99871.00;;;;2058779;28;20811;-64
2021/07/26 03:57:04;;;;;;;1.60;1.50;;;;;24.20;99875.00;;;;2055079;28;20310;-64
2021/07/26 03:58:05;;;;;;;1.63;1.53;;;;;24.20;99875.00;;;;2059171;28;20701;-64
2021/07/26 03:59:05;;;;;;;1.60;1.50;;;;;24.20;99876.00;;;;2059974;28;20287;-64
2021/07/26 04:00:06;;;;;;;1.70;1.60;;;;;24.20;99870.00;;;;2059860;28;20228;-64
2021/07/26 04:01:06;;;;;;;1.53;1.43;;;;;24.20;99873.00;;;;2060090;28;20690;-64
2021/07/26 04:02:06;;;;;;;1.60;1.50;;;;;24.20;99880.00;;;;2060694;28;20826;-64
2021/07/26 04:03:24;;;;;;;1.87;1.73;;;;;24.20;99871.00;;;;2060673;28;20688;-64
2021/07/26 04:04:25;;;;;;;2.05;1.70;;;;;24.20;99878.00;;;;2059383;28;20210;-64
2021/07/26 04:05:29;;;;;;;1.65;1.55;;;;;24.20;99876.00;;;;2059905;28;20212;-64
2021/07/26 04:06:29;;;;;;;1.65;1.55;;;;;24.20;99881.00;;;;2059356;28;20302;-64
2021/07/26 04:07:33;;;;;;;1.77;1.67;;;;;24.20;99877.00;;;;2060046;28;20253;-64
2021/07/26 04:08:35;;;;;;;1.63;1.52;;;;;24.20;99878.00;;;;2059816;28;20593;-64
2021/07/26 04:09:43;;;;;;;1.90;1.80;;;;;24.20;99884.00;;;;2060043;28;20702;-64
2021/07/26 04:11:06;;;;;;;1.73;1.63;;;;;24.20;99881.00;;;;2061970;28;20221;-64
2021/07/26 04:12:09;;;;;;;1.95;1.85;;;;;24.20;99876.00;;;;2062194;28;20211;-64
2021/07/26 04:13:09;;;;;;;1.60;1.33;;;;;24.20;99882.00;;;;2055496;28;20595;-64
2021/07/26 04:14:11;;;;;;;1.37;1.27;;;;;24.20;99875.00;;;;2055800;28;20259;-64
2021/07/26 04:15:11;;;;;;;2.05;1.80;;;;;24.20;99879.00;;;;2051150;28;20222;-64
2021/07/26 04:16:11;;;;;;;1.67;1.57;;;;;24.20;99874.00;;;;2051091;28;20224;-64
2021/07/26 04:17:12;;;;;;;1.50;1.40;;;;;24.20;99877.00;;;;2059801;28;20215;-65
2021/07/26 04:18:12;;;;;;;1.40;1.30;;;;;24.20;99881.00;;;;2060457;28;20325;-64
2021/07/26 04:19:13;;;;;;;1.70;1.57;;;;;24.10;99878.00;;;;2060413;28;20254;-64
2021/07/26 04:20:13;;;;;;;1.50;1.40;;;;;24.20;99875.00;;;;2059912;28;20221;-64
2021/07/26 04:21:13;;;;;;;1.50;1.40;;;;;24.20;99877.00;;;;2060660;28;20242;-64
2021/07/26 04:22:14;;;;;;;1.97;1.67;;;;;24.20;99880.00;;;;2059884;28;20662;-64
2021/07/26 04:23:14;;;;;;;1.53;1.43;;;;;24.20;99874.00;;;;2059842;28;20670;-64
2021/07/26 04:24:14;;;;;;;1.97;1.87;;;;;24.20;99874.00;;;;2059833;28;20581;-65
2021/07/26 04:25:15;;;;;;;1.70;1.43;;;;;24.20;99882.00;;;;2059646;28;20654;-64
2021/07/26 04:26:15;;;;;;;2.40;2.20;;;;;24.20;99875.00;;;;2060146;28;20257;-64
2021/07/26 04:27:16;;;;;;;1.43;1.33;;;;;24.20;99873.00;;;;2060350;28;20223;-64
2021/07/26 04:28:16;;;;;;;1.97;1.87;;;;;24.20;99874.00;;;;2060593;28;20224;-64
2021/07/26 04:29:16;;;;;;;1.50;1.40;;;;;24.20;99876.00;;;;2060191;28;20310;-64
2021/07/26 04:30:17;;;;;;;1.50;1.40;;;;;24.20;99878.00;;;;2059708;28;20843;-64
2021/07/26 04:31:17;;;;;;;1.83;1.70;;;;;24.20;99869.00;;;;2059005;28;20290;-64
2021/07/26 04:32:17;;;;;;;1.60;1.40;;;;;24.20;99872.00;;;;2059789;28;20219;-64
2021/07/26 04:33:18;;;;;;;2.00;1.80;;;;;24.20;99877.00;;;;2059722;28;20219;-64
2021/07/26 04:34:18;;;;;;;1.60;1.40;;;;;24.20;99871.00;;;;2059613;28;20250;-64
2021/07/26 04:35:18;;;;;;;1.57;1.47;;;;;24.20;99869.00;;;;2060091;28;20227;-64
2021/07/26 04:36:19;;;;;;;1.90;1.60;;;;;24.20;99869.00;;;;2060492;28;20269;-64
2021/07/26 04:37:19;;;;;;;1.70;1.60;;;;;24.20;99870.00;;;;2060433;28;20273;-64
2021/07/26 04:38:19;;;;;;;1.50;1.40;;;;;24.20;99872.00;;;;2060287;28;20227;-64
2021/07/26 04:39:20;;;;;;;1.87;1.77;;;;;24.20;99873.00;;;;2059921;28;20222;-64
2021/07/26 04:40:20;;;;;;;1.80;1.70;;;;;24.20;99845.00;;;;2059895;28;20210;-64
2021/07/26 04:41:20;;;;;;;1.60;1.47;;;;;24.20;99879.00;;;;2061561;28;20218;-64
2021/07/26 04:42:21;;;;;;;2.00;1.90;;;;;24.20;99887.00;;;;2061687;28;20720;-64
2021/07/26 04:43:21;;;;;;;1.70;1.60;;;;;24.20;99885.00;;;;2060365;28;20214;-64
2021/07/26 04:44:21;;;;;;;1.40;1.30;;;;;24.20;99887.00;;;;2059700;28;20271;-64
2021/07/26 04:45:22;;;;;;;1.60;1.50;;;;;24.20;99878.00;;;;2059619;28;20219;-64
2021/07/26 04:46:22;;;;;;;1.90;1.70;;;;;24.20;99877.00;;;;2059614;28;20211;-64
2021/07/26 04:47:22;;;;;;;1.30;1.20;;;;;24.20;99880.00;;;;2059469;28;20218;-64
2021/07/26 04:48:23;;;;;;;1.63;1.53;;;;;24.20;99881.00;;;;2058815;28;20219;-64
2021/07/26 04:49:23;;;;;;;1.80;1.70;;;;;24.20;99883.00;;;;2060238;28;20307;-64
2021/07/26 04:50:23;;;;;;;1.73;1.40;;;;;24.20;99878.00;;;;2059667;28;20211;-64
2021/07/26 04:51:23;;;;;;;1.67;1.43;;;;;24.20;99882.00;;;;2058834;28;20218;-64
2021/07/26 04:52:24;;;;;;;1.80;1.70;;;;;24.20;99885.00;;;;2059606;28;20293;-64
2021/07/26 04:53:24;;;;;;;1.50;1.27;;;;;24.20;99884.00;;;;2059459;28;20218;-65
2021/07/26 04:54:25;;;;;;;1.50;1.40;;;;;24.20;99882.00;;;;2059633;28;20246;-64
2021/07/26 04:55:26;;;;;;;1.60;1.50;;;;;24.20;99879.00;;;;2059283;28;20223;-64
2021/07/26 04:56:26;;;;;;;1.70;1.60;;;;;24.10;99886.00;;;;2059549;28;20589;-64
2021/07/26 04:57:26;;;;;;;1.80;1.70;;;;;24.20;99877.00;;;;2060188;28;20250;-64
2021/07/26 04:58:27;;;;;;;1.83;1.70;;;;;24.20;99886.00;;;;2059925;28;20215;-64
2021/07/26 04:59:27;;;;;;;2.13;1.50;;;;;24.20;99885.00;;;;2051542;28;20335;-64
2021/07/26 05:00:29;;;;;;;1.47;1.37;;;;;24.20;99883.00;;;;2051200;28;20621;-64
2021/07/26 05:01:29;;;;;;;1.50;1.40;;;;;24.20;99885.00;;;;2059606;28;20686;-64
2021/07/26 05:02:30;;;;;;;1.70;1.60;;;;;24.20;99887.00;;;;2066937;28;20610;-64
2021/07/26 05:03:30;;;;;;;1.77;1.67;;;;;24.20;99891.00;;;;2066430;28;20218;-64
2021/07/26 05:04:30;;;;;;;1.30;1.20;;;;;24.20;99879.00;;;;2067507;28;20301;-64
2021/07/26 05:05:31;;;;;;;1.80;1.70;;;;;24.20;99885.00;;;;2068036;28;20442;-64
2021/07/26 05:06:31;;;;;;;1.67;1.57;;;;;24.20;99890.00;;;;2051346;28;20722;-64
2021/07/26 05:07:31;;;;;;;1.40;1.30;;;;;24.20;99896.00;;;;2051649;28;20711;-64
2021/07/26 05:08:32;;;;;;;1.63;1.53;;;;;24.20;99887.00;;;;2068317;28;20234;-64